14°C Temp
13°C Dewpoint
% Humidity
Temperature
5 KM/H
3 MPH
3 KTS
30°
North North
East

Wind Speed
Light Rain
Showers
Pressure 1002.92 (hPa) - 29.62 (in)
Visibility 5.0 (mi) - 8.0 (km)

Current Conditions
LIRQ
Location 35(km)
Metar :LIRQ 230220Z 03003KT 350V070 8000 RA BKN035 OVC070 14/13 Q1003
Tue 23rd April 04:20 am

Airport
  Metar Aviation API Data Provided by https://www.checkwx.com/ PHP scripts by weather34.com ©2019